Time;durP1;ratioP1;P1;durP2;ratioP2;P2;SDS_P1;SDS_P2;PMS_P1;PMS_P2;Temp;Humidity;BMP_temperature;BMP_pressure;BME280_temperature;BME280_humidity;BME280_pressure;Samples;Min_cycle;Max_cycle;Signal;HPM_P1;HPM_P2
2022/01/31 00:00:14;;;;;;;33.58;10.13;;;;;;;3.54;100.00;101505.38;5056029;28;20044;-46
2022/01/31 00:02:41;;;;;;;36.97;11.10;;;;;;;3.52;100.00;101476.41;5055431;28;20061;-44
2022/01/31 00:05:07;;;;;;;34.25;9.25;;;;;;;3.50;100.00;101472.19;5055812;28;20443;-44
2022/01/31 00:07:32;;;;;;;34.58;9.18;;;;;;;3.49;100.00;101460.75;5053408;28;20036;-46
2022/01/31 00:09:58;;;;;;;41.35;9.90;;;;;;;3.54;100.00;101466.59;5055795;28;20056;-44
2022/01/31 00:12:29;;;;;;;33.28;9.23;;;;;;;3.55;100.00;101454.25;5054447;28;20024;-48
2022/01/31 00:15:01;;;;;;;37.92;9.90;;;;;;;3.56;100.00;101458.56;5056047;28;20153;-45
2022/01/31 00:17:26;;;;;;;36.40;8.55;;;;;;;3.57;100.00;101448.88;5037900;28;20423;-45
2022/01/31 00:19:51;;;;;;;41.30;9.45;;;;;;;3.56;100.00;101448.00;5055274;28;20056;-47
2022/01/31 00:22:16;;;;;;;37.00;9.75;;;;;;;3.59;100.00;101429.31;5053569;28;20399;-45
2022/01/31 00:24:42;;;;;;;41.33;9.05;;;;;;;3.62;100.00;101415.91;5055296;28;20033;-46
2022/01/31 00:27:08;;;;;;;28.40;8.50;;;;;;;3.57;100.00;101418.03;5054636;28;20032;-44
2022/01/31 00:29:34;;;;;;;28.92;9.35;;;;;;;3.52;100.00;101393.72;5034038;28;20098;-46
2022/01/31 00:31:59;;;;;;;40.78;10.27;;;;;;;3.43;100.00;101395.16;5034601;28;20025;-44
2022/01/31 00:34:25;;;;;;;36.90;8.68;;;;;;;3.41;100.00;101389.16;5035752;28;20130;-44
2022/01/31 00:36:51;;;;;;;31.33;8.75;;;;;;;3.46;100.00;101367.69;5032087;28;20115;-45
2022/01/31 00:39:17;;;;;;;42.85;9.43;;;;;;;3.49;100.00;101338.47;5040333;28;20103;-46
2022/01/31 00:41:42;;;;;;;33.95;8.18;;;;;;;3.54;100.00;101337.19;5054533;28;20032;-44
2022/01/31 00:46:50;;;;;;;42.25;9.73;;;;;;;3.51;100.00;101318.06;5054832;28;20619;-45
2022/01/31 00:49:24;;;;;;;35.17;8.70;;;;;;;3.34;100.00;101298.94;5054211;28;20115;-46
2022/01/31 00:51:49;;;;;;;38.92;10.10;;;;;;;3.15;100.00;101286.09;5048533;28;20322;-48
2022/01/31 00:54:15;;;;;;;36.95;9.18;;;;;;;3.14;100.00;101308.19;5052457;28;20025;-48
2022/01/31 00:56:40;;;;;;;46.13;10.13;;;;;;;3.08;100.00;101291.91;5053498;28;20035;-46
2022/01/31 00:59:05;;;;;;;41.15;9.00;;;;;;;3.03;100.00;101275.53;5055009;28;20032;-47
2022/01/31 01:01:30;;;;;;;38.42;9.82;;;;;;;2.99;100.00;101259.91;5054286;28;20229;-46
2022/01/31 01:03:56;;;;;;;39.78;9.50;;;;;;;3.01;100.00;101251.06;5054792;28;20541;-44
2022/01/31 01:06:21;;;;;;;41.50;9.45;;;;;;;3.01;100.00;101245.78;5053188;28;20377;-44
2022/01/31 01:08:46;;;;;;;32.67;8.38;;;;;;;2.96;100.00;101243.44;5054627;28;20097;-45
2022/01/31 01:11:12;;;;;;;42.13;10.07;;;;;;;3.03;100.00;101243.88;5019463;28;20021;-44
2022/01/31 01:13:37;;;;;;;38.25;9.30;;;;;;;2.98;100.00;101220.44;5054008;28;20060;-47
2022/01/31 01:16:02;;;;;;;43.92;10.05;;;;;;;2.98;100.00;101205.44;5055139;28;20021;-44
2022/01/31 01:18:27;;;;;;;48.65;13.00;;;;;;;2.99;100.00;101203.66;5053605;28;20032;-45
2022/01/31 01:20:53;;;;;;;41.40;11.45;;;;;;;3.02;100.00;101190.25;5053228;28;20059;-44
2022/01/31 01:23:18;;;;;;;43.47;10.95;;;;;;;2.97;100.00;101173.88;5054118;28;20228;-44
2022/01/31 01:25:43;;;;;;;34.70;10.82;;;;;;;3.01;100.00;101179.81;5053355;28;20467;-42
2022/01/31 01:28:09;;;;;;;50.28;12.70;;;;;;;3.02;100.00;101160.38;5053236;28;20044;-44
2022/01/31 01:30:34;;;;;;;36.67;9.27;;;;;;;3.02;100.00;101141.91;5035718;28;20127;-44
2022/01/31 01:33:18;;;;;;;51.50;12.30;;;;;;;3.04;100.00;101140.00;5054408;28;20025;-45
2022/01/31 01:35:45;;;;;;;45.40;11.38;;;;;;;3.04;100.00;101140.00;5054990;28;20389;-44
2022/01/31 01:38:15;;;;;;;60.03;14.57;;;;;;;3.07;100.00;101129.25;5053934;28;20385;-42
2022/01/31 01:40:40;;;;;;;50.22;12.52;;;;;;;3.11;100.00;101126.28;5053359;28;20052;-42
2022/01/31 01:43:06;;;;;;;49.15;12.57;;;;;;;3.14;100.00;101115.53;5053667;28;20032;-43
2022/01/31 01:45:32;;;;;;;58.10;15.88;;;;;;;3.17;100.00;101095.97;5054145;28;20029;-42
2022/01/31 01:47:58;;;;;;;59.28;16.27;;;;;;;3.15;100.00;101087.34;5054130;28;20029;-42
2022/01/31 01:50:24;;;;;;;48.40;13.13;;;;;;;3.14;100.00;101064.53;5056268;28;20024;-41
2022/01/31 01:52:52;;;;;;;50.08;14.57;;;;;;;3.16;100.00;101074.03;5056865;28;20024;-44
2022/01/31 01:55:17;;;;;;;53.05;13.50;;;;;;;3.16;100.00;101054.72;5057682;28;20090;-41
2022/01/31 01:57:43;;;;;;;43.78;12.90;;;;;;;3.15;100.00;101055.66;5058219;28;20054;-43
2022/01/31 02:00:15;;;;;;;57.33;13.35;;;;;;;3.13;100.00;101034.66;5057969;28;20032;-43
2022/01/31 02:02:45;;;;;;;56.20;15.82;;;;;;;3.18;100.00;101021.16;5058668;28;20408;-42
2022/01/31 02:05:10;;;;;;;41.08;15.07;;;;;;;3.26;100.00;101025.88;5058210;28;20017;-43
2022/01/31 02:07:36;;;;;;;36.95;12.02;;;;;;;3.27;100.00;101015.19;5056703;28;20021;-41
2022/01/31 02:10:04;;;;;;;43.67;14.73;;;;;;;3.29;100.00;101026.53;5056941;28;20021;-42
2022/01/31 02:12:47;;;;;;;51.33;13.43;;;;;;;3.28;100.00;101019.53;5057189;28;20035;-43
2022/01/31 02:15:14;;;;;;;54.25;16.08;;;;;;;3.33;100.00;101009.50;5058473;28;20028;-42
2022/01/31 02:17:40;;;;;;;51.28;13.95;;;;;;;3.36;100.00;101001.34;5057896;28;20060;-43
2022/01/31 02:20:08;;;;;;;43.05;13.80;;;;;;;3.39;100.00;101002.09;5057737;28;20040;-43
2022/01/31 02:22:35;;;;;;;48.92;15.07;;;;;;;3.44;100.00;100994.69;5055752;28;20587;-43
2022/01/31 02:25:00;;;;;;;35.50;13.93;;;;;;;3.47;100.00;101002.38;5058137;28;20017;-45
2022/01/31 02:27:34;;;;;;;38.55;15.45;;;;;;;3.51;100.00;100993.28;5057116;28;20024;-46
2022/01/31 02:30:00;;;;;;;41.10;14.32;;;;;;;3.54;100.00;100993.06;5058648;28;20074;-43
2022/01/31 02:32:26;;;;;;;37.38;13.55;;;;;;;3.61;100.00;100991.63;5057710;28;20128;-42
2022/01/31 02:34:51;;;;;;;53.22;21.00;;;;;;;3.63;100.00;100995.03;5056901;28;20534;-43
2022/01/31 02:37:18;;;;;;;47.13;16.40;;;;;;;3.65;100.00;100968.47;5056236;28;20025;-43
2022/01/31 02:39:44;;;;;;;51.42;17.30;;;;;;;3.68;100.00;100969.13;5057855;28;20032;-41
2022/01/31 02:42:10;;;;;;;34.03;14.50;;;;;;;3.74;100.00;100951.97;5057162;28;20520;-42
2022/01/31 02:44:41;;;;;;;29.40;12.40;;;;;;;3.76;100.00;100944.78;5057701;28;20089;-45
2022/01/31 02:47:11;;;;;;;;;;;;;;;3.81;100.00;100945.25;5040443;28;20035;-42
2022/01/31 02:49:46;;;;;;;29.73;10.95;;;;;;;3.86;100.00;100958.16;5056723;28;20627;-42
2022/01/31 02:52:13;;;;;;;31.05;10.82;;;;;;;3.92;100.00;100928.59;5056642;28;20107;-44
2022/01/31 02:54:39;;;;;;;26.80;11.20;;;;;;;3.97;100.00;100928.25;5039930;28;20314;-44
2022/01/31 02:57:04;;;;;;;27.23;10.30;;;;;;;3.98;100.00;100917.56;5056028;28;20032;-45
2022/01/31 02:59:31;;;;;;;24.05;10.20;;;;;;;4.03;100.00;100914.59;5039358;28;20024;-43
2022/01/31 03:01:57;;;;;;;26.45;10.57;;;;;;;4.08;100.00;100910.63;5038497;28;20225;-44
2022/01/31 03:04:22;;;;;;;31.15;10.20;;;;;;;4.10;100.00;100913.16;5038813;28;20157;-43
2022/01/31 03:06:49;;;;;;;35.83;11.50;;;;;;;4.17;100.00;100898.50;5056086;28;20036;-44
2022/01/31 03:09:15;;;;;;;26.83;10.80;;;;;;;4.26;100.00;100907.53;5057204;28;20052;-42
2022/01/31 03:11:41;;;;;;;27.30;9.68;;;;;;;4.35;100.00;100922.69;5056758;28;20042;-42
2022/01/31 03:14:06;;;;;;;35.30;10.43;;;;;;;4.42;100.00;100923.06;5057388;28;20036;-45
2022/01/31 03:16:33;;;;;;;28.83;8.63;;;;;;;4.46;100.00;100913.91;5056218;28;20055;-42
2022/01/31 03:18:58;;;;;;;31.15;7.65;;;;;;;4.53;100.00;100901.03;5056032;28;20032;-42
2022/01/31 03:21:24;;;;;;;34.63;7.60;;;;;;;4.56;100.00;100901.66;5055084;28;20259;-43
2022/01/31 03:23:50;;;;;;;32.83;6.60;;;;;;;4.65;100.00;100890.34;5036062;28;20021;-43
2022/01/31 03:26:16;;;;;;;35.47;6.80;;;;;;;4.71;100.00;100885.53;5056307;28;20020;-44
2022/01/31 03:28:41;;;;;;;34.60;7.05;;;;;;;4.78;100.00;100899.97;5056275;28;20531;-43
2022/01/31 03:31:07;;;;;;;33.55;7.80;;;;;;;4.76;100.00;100893.94;5056636;28;20111;-43
2022/01/31 03:33:33;;;;;;;29.90;6.25;;;;;;;4.78;100.00;100900.78;5037907;28;20110;-44
2022/01/31 03:35:59;;;;;;;33.38;5.22;;;;;;;4.81;100.00;100875.91;5054358;28;20483;-45
2022/01/31 03:38:24;;;;;;;24.20;4.63;;;;;;;4.86;100.00;100890.44;5056513;28;20020;-43
2022/01/31 03:40:49;;;;;;;28.80;4.70;;;;;;;4.84;100.00;100886.25;5056388;28;20054;-42
2022/01/31 03:43:14;;;;;;;30.08;5.43;;;;;;;4.88;100.00;100887.66;5055965;28;20074;-43
2022/01/31 03:45:40;;;;;;;31.33;5.18;;;;;;;4.91;100.00;100883.94;5057243;28;20029;-46
2022/01/31 03:48:06;;;;;;;20.58;3.83;;;;;;;5.03;100.00;100880.31;5056009;28;20405;-44
2022/01/31 03:50:31;;;;;;;26.60;4.15;;;;;;;5.07;100.00;100878.25;5036246;28;20043;-44
2022/01/31 03:52:57;;;;;;;24.33;3.90;;;;;;;5.12;100.00;100874.25;5055728;28;20464;-44
2022/01/31 03:55:22;;;;;;;23.75;3.50;;;;;;;5.18;100.00;100889.66;5055132;28;20379;-42
2022/01/31 03:57:49;;;;;;;20.13;3.38;;;;;;;5.22;100.00;100877.00;5054926;28;20074;-43
2022/01/31 04:00:15;;;;;;;22.77;3.67;;;;;;;5.21;100.00;100889.41;5055803;28;20532;-43
2022/01/31 04:02:41;;;;;;;24.42;3.53;;;;;;;5.23;100.00;100886.63;5056402;28;20058;-43
2022/01/31 04:05:08;;;;;;;22.98;3.80;;;;;;;5.19;100.00;100869.28;5056312;28;20131;-43
2022/01/31 04:07:34;;;;;;;21.25;2.80;;;;;;;5.20;100.00;100871.00;5053954;28;20036;-43
2022/01/31 04:10:00;;;;;;;28.42;3.45;;;;;;;5.23;100.00;100870.75;5021090;28;20040;-43
2022/01/31 04:12:25;;;;;;;26.42;3.40;;;;;;;5.22;100.00;100863.75;5055892;28;20013;-43
2022/01/31 04:14:51;;;;;;;19.13;3.08;;;;;;;5.28;100.00;100883.59;5054779;28;20043;-42
2022/01/31 04:17:19;;;;;;;21.50;3.53;;;;;;;5.31;100.00;100873.59;5056164;28;20017;-43
2022/01/31 04:19:45;;;;;;;21.35;3.25;;;;;;;5.33;100.00;100866.38;5055295;28;20052;-43
2022/01/31 04:22:14;;;;;;;25.27;3.35;;;;;;;5.31;100.00;100873.59;5053485;28;20016;-42
2022/01/31 04:24:41;;;;;;;20.80;2.90;;;;;;;5.28;100.00;100865.06;5037790;28;20027;-43
2022/01/31 04:27:07;;;;;;;17.90;3.17;;;;;;;5.28;100.00;100862.41;5055768;28;20103;-43
2022/01/31 04:29:36;;;;;;;25.50;3.55;;;;;;;5.27;100.00;100855.44;5054804;28;20425;-43
2022/01/31 04:32:01;;;;;;;22.77;2.90;;;;;;;5.29;100.00;100849.03;5054805;28;20024;-44
2022/01/31 04:34:29;;;;;;;23.35;3.53;;;;;;;5.23;100.00;100849.56;5055258;28;20115;-43
2022/01/31 04:36:54;;;;;;;18.67;2.50;;;;;;;5.18;100.00;100835.88;5053049;28;20035;-45
2022/01/31 04:39:19;;;;;;;25.83;2.70;;;;;;;5.21;100.00;100851.47;5055169;28;20025;-44
2022/01/31 04:41:47;;;;;;;21.75;2.83;;;;;;;5.21;100.00;100846.19;5055031;28;20032;-43
2022/01/31 04:44:13;;;;;;;21.83;2.55;;;;;;;5.23;100.00;100854.84;5055623;28;20043;-44
2022/01/31 04:46:40;;;;;;;14.23;2.15;;;;;;;5.21;100.00;100852.34;5054508;28;20493;-41
2022/01/31 04:49:06;;;;;;;18.63;2.42;;;;;;;5.27;100.00;100856.28;5055104;28;20116;-45
2022/01/31 04:51:32;;;;;;;19.45;2.50;;;;;;;5.23;100.00;100857.50;5053145;28;20031;-43
2022/01/31 04:53:57;;;;;;;28.35;3.28;;;;;;;5.23;100.00;100855.69;5054595;28;20413;-43
2022/01/31 04:56:22;;;;;;;19.05;2.90;;;;;;;5.22;100.00;100869.06;5055223;28;20028;-43
2022/01/31 04:58:48;;;;;;;18.17;2.70;;;;;;;5.20;100.00;100848.00;5054113;28;20272;-43
2022/01/31 05:01:13;;;;;;;19.23;2.42;;;;;;;5.17;100.00;100839.47;5055278;28;20028;-42
2022/01/31 05:03:38;;;;;;;22.30;2.90;;;;;;;5.16;100.00;100843.06;5055332;28;20024;-44
2022/01/31 05:06:04;;;;;;;21.00;3.28;;;;;;;5.13;100.00;100840.69;5053471;28;20121;-44
2022/01/31 05:08:29;;;;;;;22.20;2.67;;;;;;;5.15;100.00;100836.94;5054334;28;20073;-42
2022/01/31 05:10:55;;;;;;;31.15;3.30;;;;;;;5.10;100.00;100836.47;5036535;28;20024;-44
2022/01/31 05:13:21;;;;;;;21.27;2.67;;;;;;;5.13;100.00;100836.22;5054145;28;20029;-45
2022/01/31 05:15:46;;;;;;;25.75;2.90;;;;;;;5.13;100.00;100822.16;5054971;28;20029;-44
2022/01/31 05:18:13;;;;;;;13.95;1.95;;;;;;;5.12;100.00;100820.47;5054488;28;20173;-43
2022/01/31 05:20:38;;;;;;;20.75;2.38;;;;;;;5.14;100.00;100815.88;5053687;28;20060;-42
2022/01/31 05:23:07;;;;;;;23.27;2.88;;;;;;;5.13;100.00;100801.00;5053822;28;20036;-42
2022/01/31 05:25:33;;;;;;;24.67;2.47;;;;;;;5.21;100.00;100795.88;5054696;28;20063;-45
2022/01/31 05:27:59;;;;;;;13.57;2.60;;;;;;;5.26;100.00;100795.50;5058113;28;20082;-43
2022/01/31 05:30:24;;;;;;;20.13;3.00;;;;;;;5.34;100.00;100798.34;5058725;28;20089;-44
2022/01/31 05:32:49;;;;;;;15.70;2.63;;;;;;;5.33;100.00;100786.94;5057994;28;20587;-44
2022/01/31 05:35:15;;;;;;;17.20;1.90;;;;;;;5.31;100.00;100777.41;5039980;28;20554;-45
2022/01/31 05:37:41;;;;;;;18.02;2.10;;;;;;;5.13;100.00;100779.81;5058609;28;20025;-44
2022/01/31 05:40:07;;;;;;;18.35;2.75;;;;;;;4.94;100.00;100788.41;5058452;28;20624;-43
2022/01/31 05:42:33;;;;;;;24.83;2.55;;;;;;;4.81;100.00;100794.72;5046609;28;20123;-43
2022/01/31 05:44:58;;;;;;;16.45;2.35;;;;;;;4.59;100.00;100770.97;5043555;28;20490;-43
2022/01/31 05:47:23;;;;;;;19.05;2.88;;;;;;;4.51;100.00;100807.78;5056296;28;20063;-44
2022/01/31 05:49:49;;;;;;;19.95;2.75;;;;;;;4.28;100.00;100806.00;5048974;28;20244;-42
2022/01/31 05:52:15;;;;;;;21.50;2.60;;;;;;;4.18;100.00;100834.13;5057491;28;20059;-45
2022/01/31 05:54:42;;;;;;;25.63;2.67;;;;;;;4.09;100.00;100833.03;5042901;28;20025;-44
2022/01/31 05:57:08;;;;;;;15.35;1.80;;;;;;;3.87;100.00;100846.19;5035796;28;20085;-43
2022/01/31 05:59:34;;;;;;;15.98;2.33;;;;;;;3.72;100.00;100822.66;5051124;28;20981;-43
2022/01/31 06:02:01;;;;;;;20.20;2.33;;;;;;;3.65;100.00;100815.31;5045704;28;20082;-45
2022/01/31 06:04:29;;;;;;;13.48;1.83;;;;;;;3.60;100.00;100809.53;5057465;28;20108;-42
2022/01/31 06:06:55;;;;;;;17.85;2.47;;;;;;;3.52;100.00;100810.13;5050767;28;20029;-42
2022/01/31 06:09:20;;;;;;;26.58;3.05;;;;;;;3.52;100.00;100808.31;5039719;28;20029;-42
2022/01/31 06:11:49;;;;;;;18.27;2.13;;;;;;;3.49;100.00;100795.34;5039458;28;20029;-43
2022/01/31 06:14:14;;;;;;;28.63;3.03;;;;;;;3.58;100.00;100788.56;5038366;28;20529;-42
2022/01/31 06:16:40;;;;;;;20.85;2.83;;;;;;;3.60;100.00;100780.47;5039681;28;20185;-45
2022/01/31 06:19:05;;;;;;;19.73;2.47;;;;;;;3.63;100.00;100778.47;5054292;28;20103;-44
2022/01/31 06:21:30;;;;;;;28.02;3.33;;;;;;;3.66;100.00;100793.22;5050492;28;20524;-43
2022/01/31 06:23:55;;;;;;;26.05;2.83;;;;;;;3.72;100.00;100803.34;5055338;28;20158;-42
2022/01/31 06:26:22;;;;;;;30.90;3.33;;;;;;;3.73;100.00;100784.72;5045075;28;20515;-43
2022/01/31 06:28:50;;;;;;;30.02;3.67;;;;;;;3.86;100.00;100791.69;5048543;28;20040;-43
2022/01/31 06:31:16;;;;;;;23.92;2.85;;;;;;;3.82;100.00;100785.81;5052300;28;20055;-42
2022/01/31 06:33:41;;;;;;;27.58;3.35;;;;;;;3.84;100.00;100801.56;5054699;28;20036;-44
2022/01/31 06:36:06;;;;;;;29.50;4.07;;;;;;;3.85;100.00;100788.22;5052386;28;20546;-43
2022/01/31 06:38:32;;;;;;;30.77;3.45;;;;;;;3.84;100.00;100797.09;5036322;28;20063;-43
2022/01/31 06:40:57;;;;;;;27.33;3.13;;;;;;;3.89;100.00;100788.81;5054003;28;20540;-43
2022/01/31 06:43:23;;;;;;;22.27;2.90;;;;;;;3.89;100.00;100796.75;5036492;28;20120;-42
2022/01/31 06:45:49;;;;;;;40.40;4.13;;;;;;;3.91;100.00;100794.81;5052659;28;20020;-40
2022/01/31 06:48:15;;;;;;;20.25;2.85;;;;;;;3.87;100.00;100788.06;5054203;28;20012;-43
2022/01/31 06:50:40;;;;;;;27.33;3.42;;;;;;;3.79;100.00;100796.63;5054233;28;20075;-44
2022/01/31 06:53:06;;;;;;;31.33;4.07;;;;;;;3.79;100.00;100788.69;5054760;28;20395;-44
2022/01/31 06:55:34;;;;;;;28.80;2.83;;;;;;;3.78;100.00;100794.91;5056196;28;20032;-45
2022/01/31 06:58:00;;;;;;;25.40;3.35;;;;;;;3.81;100.00;100785.94;5055872;28;20078;-44
2022/01/31 07:00:25;;;;;;;26.88;3.65;;;;;;;3.84;100.00;100781.25;5055192;28;20078;-41
2022/01/31 07:02:51;;;;;;;28.58;2.80;;;;;;;3.80;100.00;100784.25;5053877;28;20024;-43
2022/01/31 07:05:18;;;;;;;33.10;4.25;;;;;;;3.86;100.00;100781.97;5055030;28;20118;-43
2022/01/31 07:07:44;;;;;;;25.83;3.42;;;;;;;3.80;100.00;100792.16;5036714;28;20032;-41
2022/01/31 07:10:10;;;;;;;27.02;3.58;;;;;;;3.83;100.00;100789.28;5056020;28;20028;-41
2022/01/31 07:12:39;;;;;;;28.98;3.75;;;;;;;3.79;100.00;100777.28;5055734;28;20013;-42
2022/01/31 07:15:09;;;;;;;26.48;3.63;;;;;;;3.85;100.00;100782.94;5054588;28;20399;-42
2022/01/31 07:17:40;;;;;;;30.60;3.92;;;;;;;3.86;100.00;100774.03;5054499;28;20116;-42
2022/01/31 07:20:10;;;;;;;36.92;4.38;;;;;;;3.84;100.00;100788.34;5019564;28;1018323;-43
2022/01/31 07:22:38;;;;;;;34.65;2.90;;;;;;;3.79;100.00;100807.19;5056243;28;20032;-44
2022/01/31 07:25:08;;;;;;;31.88;3.35;;;;;;;3.78;100.00;100812.59;5055230;28;20099;-46
2022/01/31 07:27:35;;;;;;;33.67;3.47;;;;;;;3.72;100.00;100822.66;5056239;28;20839;-44
2022/01/31 07:30:01;;;;;;;28.98;4.03;;;;;;;3.63;100.00;100826.00;5054580;28;20125;-46
2022/01/31 07:32:28;;;;;;;35.30;4.00;;;;;;;3.65;100.00;100813.53;5055348;28;20027;-43
2022/01/31 07:34:55;;;;;;;34.90;3.92;;;;;;;3.66;100.00;100809.91;5054223;28;20024;-41
2022/01/31 07:37:24;;;;;;;37.13;3.95;;;;;;;3.61;100.00;100848.19;5054506;28;20258;-43
2022/01/31 07:39:49;;;;;;;26.65;2.92;;;;;;;3.60;100.00;100802.47;5055743;28;20342;-41
2022/01/31 07:42:15;;;;;;;32.17;3.55;;;;;;;3.57;100.00;100805.34;5056077;28;20182;-43
2022/01/31 07:44:41;;;;;;;27.73;3.30;;;;;;;3.44;100.00;100781.66;5054414;28;20047;-42
2022/01/31 07:47:06;;;;;;;23.10;2.58;;;;;;;3.48;100.00;100792.81;5054748;28;20033;-43
2022/01/31 07:49:31;;;;;;;35.10;3.50;;;;;;;3.61;100.00;100795.38;5055482;28;20031;-43
2022/01/31 07:51:58;;;;;;;31.00;3.30;;;;;;;3.53;100.00;100799.47;5054320;28;20157;-42
2022/01/31 07:54:24;;;;;;;25.80;3.17;;;;;;;3.55;100.00;100796.69;5056166;28;20748;-46
2022/01/31 07:56:50;;;;;;;32.47;3.58;;;;;;;3.60;100.00;100806.88;5055877;28;20465;-43
2022/01/31 07:59:15;;;;;;;34.83;3.58;;;;;;;3.60;100.00;100796.31;5055283;28;20078;-42
2022/01/31 08:01:40;;;;;;;39.95;4.40;;;;;;;3.57;100.00;100786.84;5055437;28;20024;-43
2022/01/31 08:04:06;;;;;;;35.20;4.03;;;;;;;3.59;100.00;100789.38;5055953;28;20021;-47
2022/01/31 08:06:32;;;;;;;32.92;3.85;;;;;;;3.67;100.00;100797.56;5053904;28;20052;-46
2022/01/31 08:08:57;;;;;;;30.17;3.05;;;;;;;3.72;100.00;100798.06;5056111;28;20067;-42
2022/01/31 08:11:25;;;;;;;32.47;4.25;;;;;;;3.72;100.00;100808.63;5055341;28;20104;-41
2022/01/31 08:13:55;;;;;;;27.42;3.53;;;;;;;3.74;100.00;100812.81;5055077;28;20032;-42
2022/01/31 08:16:20;;;;;;;41.42;4.00;;;;;;;3.73;100.00;100813.78;5053596;28;20039;-42
2022/01/31 08:18:46;;;;;;;32.95;4.07;;;;;;;3.74;100.00;100830.47;5055414;28;21328;-42
2022/01/31 08:21:13;;;;;;;35.58;4.30;;;;;;;3.81;100.00;100831.69;5054055;28;20777;-46
2022/01/31 08:23:39;;;;;;;42.28;4.15;;;;;;;3.76;100.00;100825.06;5055524;28;20095;-41
2022/01/31 08:26:10;;;;;;;33.97;3.97;;;;;;;3.82;100.00;100819.28;5055134;28;20677;-43
2022/01/31 08:28:52;;;;;;;27.92;3.30;;;;;;;3.74;100.00;100838.38;5037374;28;20075;-44
2022/01/31 08:31:23;;;;;;;32.78;4.28;;;;;;;3.77;100.00;100822.31;5054261;28;20051;-42
2022/01/31 08:36:23;;;;;;;29.63;3.55;;;;;;;3.74;100.00;100812.81;5052816;28;20468;-43
2022/01/31 08:38:50;;;;;;;34.83;3.25;;;;;;;3.79;100.00;100838.03;5053943;28;20093;-44
2022/01/31 08:41:16;;;;;;;52.20;4.10;;;;;;;3.83;100.00;100821.00;5054357;28;20024;-43
2022/01/31 08:43:43;;;;;;;35.42;4.32;;;;;;;3.91;100.00;100816.78;5054930;28;20043;-42
2022/01/31 08:46:11;;;;;;;35.92;4.07;;;;;;;3.92;100.00;100839.63;5053896;28;20032;-43
2022/01/31 08:48:37;;;;;;;25.70;2.97;;;;;;;3.89;100.00;100834.56;5055505;28;20024;-44
2022/01/31 08:51:05;;;;;;;46.47;5.15;;;;;;;3.91;100.00;100840.56;5054144;28;20041;-44
2022/01/31 08:53:32;;;;;;;36.42;3.78;;;;;;;3.99;100.00;100855.84;5036686;28;20035;-44
2022/01/31 08:56:24;;;;;;;27.77;3.67;;;;;;;4.04;100.00;100855.47;5036990;28;20400;-43
2022/01/31 08:58:50;;;;;;;34.85;4.05;;;;;;;4.01;100.00;100834.59;5049816;28;20276;-45
2022/01/31 09:01:21;;;;;;;23.48;2.72;;;;;;;4.02;100.00;100831.84;5054333;28;20024;-43
2022/01/31 09:06:17;;;;;;;27.52;2.65;;;;;;;3.96;100.00;100847.31;5053990;28;20036;-43
2022/01/31 09:08:43;;;;;;;34.92;3.45;;;;;;;3.91;100.00;100835.28;5055941;28;20384;-43
2022/01/31 09:11:09;;;;;;;31.27;3.65;;;;;;;3.86;100.00;100842.72;5054435;28;20139;-43
2022/01/31 09:13:34;;;;;;;34.92;3.92;;;;;;;3.85;100.00;100837.56;5054860;28;20046;-43
2022/01/31 09:16:01;;;;;;;43.45;4.25;;;;;;;3.81;100.00;100844.06;5054237;28;20020;-43
2022/01/31 09:18:26;;;;;;;41.22;5.13;;;;;;;3.89;100.00;100846.94;5053588;28;20030;-43
2022/01/31 09:20:52;;;;;;;37.03;4.47;;;;;;;3.92;100.00;100846.69;5053411;28;20413;-44
2022/01/31 09:23:17;;;;;;;39.13;4.65;;;;;;;3.89;100.00;100854.88;5054143;28;20480;-42
2022/01/31 09:25:45;;;;;;;34.25;3.90;;;;;;;3.87;100.00;100848.84;5054747;28;20411;-43
2022/01/31 09:28:11;;;;;;;44.67;4.57;;;;;;;3.90;100.00;100843.31;5054625;28;20103;-42
2022/01/31 09:30:37;;;;;;;44.72;5.15;;;;;;;3.95;100.00;100842.97;5054295;28;20017;-44
2022/01/31 09:33:03;;;;;;;33.85;4.03;;;;;;;3.92;100.00;100858.13;5054721;28;20472;-44
2022/01/31 09:35:28;;;;;;;40.40;4.35;;;;;;;3.85;100.00;100869.25;5052527;28;20040;-43
2022/01/31 09:37:53;;;;;;;29.05;3.83;;;;;;;3.89;100.00;100868.91;5053898;28;20024;-43
2022/01/31 09:40:21;;;;;;;37.28;3.83;;;;;;;3.91;100.00;100890.78;5054817;28;20035;-42
2022/01/31 09:43:38;;;;;;;48.90;5.30;;;;;;;3.95;100.00;100893.19;5036094;28;20170;-43
2022/01/31 09:51:07;;;;;;;49.13;5.25;;;;;;;3.93;100.00;100914.44;5053006;28;20472;-41
2022/01/31 09:53:36;;;;;;;41.65;4.97;;;;;;;3.91;100.00;100919.00;5052310;28;20042;-42
2022/01/31 09:56:02;;;;;;;38.80;3.55;;;;;;;3.85;100.00;100924.75;5053556;28;20532;-42
2022/01/31 09:58:29;;;;;;;26.42;3.55;;;;;;;3.79;100.00;100919.94;5052970;28;20032;-43
2022/01/31 10:01:10;;;;;;;39.08;5.35;;;;;;;3.82;100.00;100919.69;5053132;28;20039;-43
2022/01/31 10:03:53;;;;;;;30.88;3.70;;;;;;;3.71;100.00;100926.63;5053769;28;20028;-46
2022/01/31 10:06:30;;;;;;;50.60;5.80;;;;;;;3.73;100.00;100913.28;5052851;28;20029;-42
2022/01/31 10:09:01;;;;;;;54.30;5.45;;;;;;;3.76;100.00;100918.34;5054094;28;20197;-42
2022/01/31 10:11:37;;;;;;;59.53;6.15;;;;;;;3.79;100.00;100926.06;5036752;28;20146;-41
2022/01/31 10:17:39;;;;;;;37.47;4.47;;;;;;;3.92;100.00;100947.09;5036854;28;20043;-42
2022/01/31 10:20:21;;;;;;;58.88;6.70;;;;;;;3.91;100.00;100929.56;5036916;28;20057;-43
2022/01/31 10:22:46;;;;;;;66.70;7.28;;;;;;;3.94;100.00;100950.50;5017982;28;20033;-41
2022/01/31 10:25:14;;;;;;;53.78;6.32;;;;;;;3.90;100.00;100959.59;5037994;28;20029;-42
2022/01/31 10:27:46;;;;;;;53.55;6.35;;;;;;;4.00;100.00;100954.47;5038944;28;20448;-44
2022/01/31 10:30:14;;;;;;;57.90;6.55;;;;;;;4.03;100.00;100989.41;5037913;28;20470;-42
2022/01/31 10:32:42;;;;;;;59.97;6.85;;;;;;;4.08;100.00;100987.28;5038035;28;20496;-44
2022/01/31 10:35:14;;;;;;;53.80;6.07;;;;;;;4.05;100.00;100981.38;5018407;28;20024;-42
2022/01/31 10:37:41;;;;;;;55.00;7.00;;;;;;;4.11;100.00;100991.50;5037008;28;20032;-43
2022/01/31 10:53:43;;;;;;;64.13;8.20;;;;;;;4.18;100.00;100986.59;5058067;28;20063;-44
2022/01/31 10:56:08;;;;;;;52.00;6.20;;;;;;;4.17;100.00;100992.81;5056808;28;20025;-43
2022/01/31 10:58:36;;;;;;;46.42;5.35;;;;;;;4.01;100.00;101004.56;5057246;28;20028;-45
2022/01/31 11:01:16;;;;;;;54.28;7.10;;;;;;;4.05;100.00;101008.63;5037931;28;20445;-44
2022/01/31 11:03:42;;;;;;;55.00;5.88;;;;;;;4.02;100.00;101016.81;5057945;28;20027;-41
2022/01/31 11:06:10;;;;;;;45.15;6.18;;;;;;;4.03;100.00;100996.50;5055877;28;20100;-43
2022/01/31 11:08:36;;;;;;;66.05;6.45;;;;;;;3.95;100.00;100989.16;5056843;28;20074;-44
2022/01/31 11:11:02;;;;;;;58.75;5.95;;;;;;;3.95;100.00;101018.22;5056899;28;20414;-41
2022/01/31 11:13:31;;;;;;;64.15;6.85;;;;;;;3.90;100.00;101033.56;5055959;28;20479;-42
2022/01/31 11:15:57;;;;;;;54.15;6.38;;;;;;;3.93;100.00;101041.28;5056068;28;20012;-40
2022/01/31 11:18:24;;;;;;;47.38;5.32;;;;;;;3.91;100.00;101036.09;5056672;28;20741;-43
2022/01/31 11:20:56;;;;;;;50.95;5.95;;;;;;;3.81;100.00;101034.25;5054991;28;20059;-42
2022/01/31 11:23:25;;;;;;;47.40;5.10;;;;;;;3.85;100.00;101027.78;5055441;28;20074;-44
2022/01/31 11:25:55;;;;;;;49.28;5.32;;;;;;;3.80;100.00;101051.06;5040169;28;20024;-43
2022/01/31 11:28:21;;;;;;;61.88;5.93;;;;;;;3.76;100.00;101045.16;5036718;28;20048;-45
2022/01/31 11:30:47;;;;;;;41.78;4.57;;;;;;;3.73;100.00;101051.50;5035402;28;20126;-42
2022/01/31 11:33:12;;;;;;;61.95;5.93;;;;;;;3.76;100.00;101068.09;5036633;28;20033;-44
2022/01/31 11:35:38;;;;;;;57.70;7.38;;;;;;;3.78;100.00;101045.03;5035417;28;20052;-43
2022/01/31 11:38:03;;;;;;;69.78;8.13;;;;;;;3.76;100.00;101063.63;5035781;28;20029;-45
2022/01/31 11:40:29;;;;;;;51.33;6.28;;;;;;;3.79;100.00;101049.38;5035098;28;20364;-42
2022/01/31 11:42:55;;;;;;;47.53;5.45;;;;;;;3.79;100.00;101050.22;5035263;28;20039;-44
2022/01/31 11:45:27;;;;;;;52.78;5.25;;;;;;;3.77;100.00;101049.50;5035130;28;20020;-43